Terminal Aerodrome Forecast
Issued by NWS

Home | Current Version | Previous Version | Text Only | Print | Product List | Glossary On
Versions: 1 2 3 4 5 6 7 8 9 10 11 12 13 14 15 16 17 18 19 20 21 22 23 24 25 26 27
000
FTUS46 KEKA 180522
TAFCEC
TAF
KCEC 180522Z 1806/1906 18007KT P6SM FEW040 BKN080
     FM180900 13003KT 6SM BR SCT012 BKN060
      TEMPO 1810/1813 4SM BR BKN008
     FM181500 22006KT 6SM HZ SCT008
     FM182000 30012G22KT 6SM HZ SKC
     FM190300 34014G20KT 6SM HZ SCT010=

USA.gov is the U.S. government's official web portal to all federal, state and local government web resources and services.